Avioradar koristi kolačiće da bi Vam omogućio jednostavnije i ugodnije korištenje stranice. 

AVIORADAR - Croatian aviation website

METAR & TAF

[Source: ADDS]
METAR
LDZA 042200Z 25003KT 220V280 CAVOK 16/14 Q1017 NOSIG =
LDZA 041725Z 0418/0518 VRB02KT CAVOK TX29/0514Z TN14/0503Z BECMG 0508/0510 04007KT LDSP 042200Z AUTO 06005KT 030V100 CAVOK 26/13 Q1013 =
AMD LDSP 041930Z 0419/0518 05005KT CAVOK TX32/0513Z TN23/0503Z BECMG 0510/0512 23011KT BECMG 0515/0517 05005KT LDDU 042200Z 06006KT 020V080 9999 SCT045 22/19 Q1014 =
LDDU 041725Z 0418/0518 29015KT CAVOK TX30/0512Z TN22/0503Z BECMG 0418/0420 02018KT PROB30 TEMPO 0418/0419 TSRA FEW040CB BECMG 0507/0509 22007KT PROB40 TEMPO 0511/0518 TSRA FEW040CB BECMG 0512/0514 29009KT LDPL 042200Z 02005KT CAVOK 19/11 Q1016 NOSIG =
LDPL 041725Z 0418/0518 VRB02KT CAVOK TX30/0513Z TN21/0503Z BECMG 0419/0421 06010KT TEMPO 0501/0512 06015G25KT BECMG 0513/0515 29008KT LDZD 042200Z 01003KT 330V060 CAVOK 19/13 Q1014 =
LDZD 041725Z 0418/0518 06008KT CAVOK TX32/0513Z TN19/0503Z TEMPO 0512/0517 30010KT LDRI 041700Z 07009KT CAVOK 27/11 Q1015 =
LDRI 041125Z 0412/0512 04014KT CAVOK TX28/0412Z TN20/0503Z TEMPO 0412/0500 VRB08KT PROB30 TEMPO 0412/0416 04015G25KT BECMG 0417/0419 05004KT TEMPO 0504/0512 32006KT LDOS 042200Z 29004KT CAVOK 19/17 Q1016 =
LDOS 041725Z 0418/0518 33006KT CAVOK TX29/0514Z TN17/0503Z
TAF
LDZA 041725Z 0418/0518 VRB02KT CAVOK TX29/0514Z TN14/0503Z BECMG 0508/0510 04007KT =
AMD LDSP 041930Z 0419/0518 05005KT CAVOK TX32/0513Z TN23/0503Z BECMG 0510/0512 23011KT BECMG 0515/0517 05005KT =
LDDU 041725Z 0418/0518 29015KT CAVOK TX30/0512Z TN22/0503Z BECMG 0418/0420 02018KT PROB30 TEMPO 0418/0419 TSRA FEW040CB BECMG 0507/0509 22007KT PROB40 TEMPO 0511/0518 TSRA FEW040CB BECMG 0512/0514 29009KT =
LDPL 041725Z 0418/0518 VRB02KT CAVOK TX30/0513Z TN21/0503Z BECMG 0419/0421 06010KT TEMPO 0501/0512 06015G25KT BECMG 0513/0515 29008KT =
LDZD 041725Z 0418/0518 06008KT CAVOK TX32/0513Z TN19/0503Z TEMPO 0512/0517 30010KT =
LDRI 041125Z 0412/0512 04014KT CAVOK TX28/0412Z TN20/0503Z TEMPO 0412/0500 VRB08KT PROB30 TEMPO 0412/0416 04015G25KT BECMG 0417/0419 05004KT TEMPO 0504/0512 32006KT =
LDOS 041725Z 0418/0518 33006KT CAVOK TX29/0514Z TN17/0503Z =
SR / SS: 03:13 / 18:47 UTC (Zagreb 2020-07-05)